Hewitt, Wisconsin
Current Conditions -  °F | °C
As of 1:54 PM on Thursday 30 Oct 2014 (Local Time) from KMFI Reporting Station
Overcast Overcast  
Wind Chill: 43°   Ceiling: 5000
Heat Index: 47°   Visibility: 10mi
Dew Point: 36°   Wind: 8mph
Humidity: 66%   Direction: 320°NW
Pressure: 30.04"   Gusts: NA
Location:  44.64°N, 90.1°W
Report Text: KMFI 301854Z AUTO 32007KT 10SM OVC050 08/02 A3004 RMK AO2 SLP183 T00830022
Loading
Personal Weather Stations






























Interactive Weather Map
Tropical Storm Tracking
New forecast layout! Learn more

10-Day Weather Forecast

Advertisements
Track Severe Weather on mobile